sensor_id;sensor_type;location;lat;lon;timestamp;pressure;altitude;pressure_sealevel;temperature;humidity
66945;BME280;53853;51.982;5.928;2023-05-27T00:00:47;102900.75;;;11.04;61.95
66945;BME280;53853;51.982;5.928;2023-05-27T00:03:19;102899.91;;;11.04;61.89
66945;BME280;53853;51.982;5.928;2023-05-27T00:05:49;102898.28;;;11.01;61.81
66945;BME280;53853;51.982;5.928;2023-05-27T00:08:19;102903.81;;;10.98;62.06
66945;BME280;53853;51.982;5.928;2023-05-27T00:10:49;102896.84;;;10.96;62.66
66945;BME280;53853;51.982;5.928;2023-05-27T00:13:19;102901.53;;;10.92;62.93
66945;BME280;53853;51.982;5.928;2023-05-27T00:15:49;102896.22;;;10.92;63.00
66945;BME280;53853;51.982;5.928;2023-05-27T00:18:21;102894.50;;;10.91;62.71
66945;BME280;53853;51.982;5.928;2023-05-27T00:20:51;102900.06;;;10.88;62.99
66945;BME280;53853;51.982;5.928;2023-05-27T00:23:21;102893.00;;;10.87;62.63
66945;BME280;53853;51.982;5.928;2023-05-27T00:25:51;102894.03;;;10.84;62.94
66945;BME280;53853;51.982;5.928;2023-05-27T00:28:21;102896.81;;;10.83;62.85
66945;BME280;53853;51.982;5.928;2023-05-27T00:30:51;102894.25;;;10.81;62.80
66945;BME280;53853;51.982;5.928;2023-05-27T00:33:24;102892.56;;;10.80;63.10
66945;BME280;53853;51.982;5.928;2023-05-27T00:35:53;102896.16;;;10.79;62.98
66945;BME280;53853;51.982;5.928;2023-05-27T00:38:23;102889.88;;;10.80;62.85
66945;BME280;53853;51.982;5.928;2023-05-27T00:40:54;102896.38;;;10.76;63.06
66945;BME280;53853;51.982;5.928;2023-05-27T00:43:24;102884.94;;;10.74;63.03
66945;BME280;53853;51.982;5.928;2023-05-27T00:45:53;102890.38;;;10.73;63.23
66945;BME280;53853;51.982;5.928;2023-05-27T00:48:26;102887.81;;;10.71;63.33
66945;BME280;53853;51.982;5.928;2023-05-27T00:50:56;102880.97;;;10.67;63.89
66945;BME280;53853;51.982;5.928;2023-05-27T00:53:26;102874.88;;;10.65;63.64
66945;BME280;53853;51.982;5.928;2023-05-27T00:55:58;102879.47;;;10.63;63.83
66945;BME280;53853;51.982;5.928;2023-05-27T00:58:30;102878.88;;;10.58;64.03
66945;BME280;53853;51.982;5.928;2023-05-27T01:01:00;102881.56;;;10.58;64.44
66945;BME280;53853;51.982;5.928;2023-05-27T01:03:33;102888.81;;;10.56;64.41
66945;BME280;53853;51.982;5.928;2023-05-27T01:06:13;102874.72;;;10.54;64.25
66945;BME280;53853;51.982;5.928;2023-05-27T01:08:52;102879.31;;;10.51;64.38
66945;BME280;53853;51.982;5.928;2023-05-27T01:11:30;102868.75;;;10.50;64.46
66945;BME280;53853;51.982;5.928;2023-05-27T01:14:07;102874.09;;;10.50;64.21
66945;BME280;53853;51.982;5.928;2023-05-27T01:16:40;102875.97;;;10.48;64.09
66945;BME280;53853;51.982;5.928;2023-05-27T01:19:27;102865.41;;;10.46;64.49
66945;BME280;53853;51.982;5.928;2023-05-27T01:22:00;102860.06;;;10.46;64.17
66945;BME280;53853;51.982;5.928;2023-05-27T01:24:33;102875.41;;;10.43;64.87
66945;BME280;53853;51.982;5.928;2023-05-27T01:27:04;102864.19;;;10.38;64.95
66945;BME280;53853;51.982;5.928;2023-05-27T01:29:35;102855.34;;;10.37;64.78
66945;BME280;53853;51.982;5.928;2023-05-27T01:32:10;102854.59;;;10.35;64.82
66945;BME280;53853;51.982;5.928;2023-05-27T01:34:46;102859.06;;;10.35;64.96
66945;BME280;53853;51.982;5.928;2023-05-27T01:37:19;102853.91;;;10.31;65.00
66945;BME280;53853;51.982;5.928;2023-05-27T01:39:54;102854.09;;;10.28;65.29
66945;BME280;53853;51.982;5.928;2023-05-27T01:42:24;102854.28;;;10.25;65.83
66945;BME280;53853;51.982;5.928;2023-05-27T01:44:54;102857.81;;;10.26;65.40
66945;BME280;53853;51.982;5.928;2023-05-27T01:47:27;102848.13;;;10.25;65.23
66945;BME280;53853;51.982;5.928;2023-05-27T01:49:57;102846.50;;;10.22;65.61
66945;BME280;53853;51.982;5.928;2023-05-27T01:52:28;102846.59;;;10.21;65.59
66945;BME280;53853;51.982;5.928;2023-05-27T01:55:01;102852.84;;;10.20;65.37
66945;BME280;53853;51.982;5.928;2023-05-27T01:57:31;102851.25;;;10.17;65.54
66945;BME280;53853;51.982;5.928;2023-05-27T02:00:01;102855.84;;;10.15;66.13
66945;BME280;53853;51.982;5.928;2023-05-27T02:02:31;102865.63;;;10.14;65.73
66945;BME280;53853;51.982;5.928;2023-05-27T02:05:01;102859.53;;;10.12;66.02
66945;BME280;53853;51.982;5.928;2023-05-27T02:07:34;102864.13;;;10.10;66.23
66945;BME280;53853;51.982;5.928;2023-05-27T02:10:09;102870.50;;;10.08;66.55
66945;BME280;53853;51.982;5.928;2023-05-27T02:12:39;102870.69;;;10.05;67.09
66945;BME280;53853;51.982;5.928;2023-05-27T02:15:09;102866.28;;;10.04;66.96
66945;BME280;53853;51.982;5.928;2023-05-27T02:17:39;102864.59;;;10.03;67.09
66945;BME280;53853;51.982;5.928;2023-05-27T02:20:12;102861.84;;;10.04;66.93
66945;BME280;53853;51.982;5.928;2023-05-27T02:22:42;102868.13;;;10.03;67.12
66945;BME280;53853;51.982;5.928;2023-05-27T02:25:15;102866.50;;;10.01;67.83
66945;BME280;53853;51.982;5.928;2023-05-27T02:27:45;102864.69;;;10.01;67.95
66945;BME280;53853;51.982;5.928;2023-05-27T02:30:18;102863.72;;;10.02;67.74
66945;BME280;53853;51.982;5.928;2023-05-27T02:32:48;102869.06;;;10.02;67.47
66945;BME280;53853;51.982;5.928;2023-05-27T02:35:19;102865.53;;;10.02;67.31
66945;BME280;53853;51.982;5.928;2023-05-27T02:37:49;102872.69;;;10.01;67.50
66945;BME280;53853;51.982;5.928;2023-05-27T02:40:28;102871.91;;;9.99;67.72
66945;BME280;53853;51.982;5.928;2023-05-27T02:42:58;102874.56;;;9.99;67.84
66945;BME280;53853;51.982;5.928;2023-05-27T02:45:27;102870.41;;;9.95;68.28
66945;BME280;53853;51.982;5.928;2023-05-27T02:47:58;102867.94;;;9.92;68.58
66945;BME280;53853;51.982;5.928;2023-05-27T02:50:29;102866.13;;;9.92;68.15
66945;BME280;53853;51.982;5.928;2023-05-27T02:52:59;102867.09;;;9.91;67.62
66945;BME280;53853;51.982;5.928;2023-05-27T02:55:31;102866.50;;;9.86;68.51
66945;BME280;53853;51.982;5.928;2023-05-27T02:58:01;102872.00;;;9.83;68.69
66945;BME280;53853;51.982;5.928;2023-05-27T03:00:33;102869.44;;;9.82;68.46
66945;BME280;53853;51.982;5.928;2023-05-27T03:03:04;102868.78;;;9.78;68.72
66945;BME280;53853;51.982;5.928;2023-05-27T03:05:34;102872.28;;;9.78;68.74
66945;BME280;53853;51.982;5.928;2023-05-27T03:08:04;102868.97;;;9.75;68.52
66945;BME280;53853;51.982;5.928;2023-05-27T03:10:38;102861.06;;;9.73;68.58
66945;BME280;53853;51.982;5.928;2023-05-27T03:13:08;102867.19;;;9.75;68.17
66945;BME280;53853;51.982;5.928;2023-05-27T03:15:38;102856.72;;;9.72;68.28
66945;BME280;53853;51.982;5.928;2023-05-27T03:18:08;102853.28;;;9.70;68.65
66945;BME280;53853;51.982;5.928;2023-05-27T03:20:38;102845.38;;;9.69;68.80
66945;BME280;53853;51.982;5.928;2023-05-27T03:23:09;102856.91;;;9.69;68.51
66945;BME280;53853;51.982;5.928;2023-05-27T03:25:41;102845.47;;;9.67;68.69
66945;BME280;53853;51.982;5.928;2023-05-27T03:28:11;102849.94;;;9.67;68.84
66945;BME280;53853;51.982;5.928;2023-05-27T03:30:42;102849.94;;;9.67;69.00
66945;BME280;53853;51.982;5.928;2023-05-27T03:33:24;102847.38;;;9.65;69.25
66945;BME280;53853;51.982;5.928;2023-05-27T03:35:54;102851.78;;;9.66;68.78
66945;BME280;53853;51.982;5.928;2023-05-27T03:38:24;102848.22;;;9.66;68.77
66945;BME280;53853;51.982;5.928;2023-05-27T03:40:58;102855.47;;;9.64;69.24
66945;BME280;53853;51.982;5.928;2023-05-27T03:43:28;102851.97;;;9.63;69.12
66945;BME280;53853;51.982;5.928;2023-05-27T03:45:58;102845.66;;;9.64;68.86
66945;BME280;53853;51.982;5.928;2023-05-27T03:48:29;102846.53;;;9.65;68.88
66945;BME280;53853;51.982;5.928;2023-05-27T03:50:59;102845.66;;;9.64;69.59
66945;BME280;53853;51.982;5.928;2023-05-27T03:53:30;102844.53;;;9.68;69.31
66945;BME280;53853;51.982;5.928;2023-05-27T03:56:02;102846.16;;;9.71;69.47
66945;BME280;53853;51.982;5.928;2023-05-27T03:58:32;102847.94;;;9.70;69.39
66945;BME280;53853;51.982;5.928;2023-05-27T04:01:05;102840.75;;;9.72;69.23
66945;BME280;53853;51.982;5.928;2023-05-27T04:03:35;102838.00;;;9.74;69.12
66945;BME280;53853;51.982;5.928;2023-05-27T04:06:06;102832.56;;;9.75;68.90
66945;BME280;53853;51.982;5.928;2023-05-27T04:08:36;102836.91;;;9.76;69.14
66945;BME280;53853;51.982;5.928;2023-05-27T04:11:11;102829.91;;;9.75;69.40
66945;BME280;53853;51.982;5.928;2023-05-27T04:13:41;102822.56;;;9.79;69.13
66945;BME280;53853;51.982;5.928;2023-05-27T04:16:11;102842.91;;;9.80;68.90
66945;BME280;53853;51.982;5.928;2023-05-27T04:18:43;102827.81;;;9.81;68.79
66945;BME280;53853;51.982;5.928;2023-05-27T04:21:16;102831.22;;;9.83;68.64
66945;BME280;53853;51.982;5.928;2023-05-27T04:23:46;102833.78;;;9.84;68.79
66945;BME280;53853;51.982;5.928;2023-05-27T04:26:18;102828.19;;;9.89;68.52
66945;BME280;53853;51.982;5.928;2023-05-27T04:28:52;102826.34;;;9.89;69.16
66945;BME280;53853;51.982;5.928;2023-05-27T04:31:26;102810.38;;;9.89;69.16
66945;BME280;53853;51.982;5.928;2023-05-27T04:34:03;102805.94;;;9.90;69.00
66945;BME280;53853;51.982;5.928;2023-05-27T04:36:34;102808.41;;;9.93;68.73
66945;BME280;53853;51.982;5.928;2023-05-27T04:39:09;102803.81;;;9.95;68.64
66945;BME280;53853;51.982;5.928;2023-05-27T04:41:45;102817.88;;;9.97;69.44
66945;BME280;53853;51.982;5.928;2023-05-27T04:44:21;102815.88;;;10.01;69.59
66945;BME280;53853;51.982;5.928;2023-05-27T04:46:55;102814.75;;;10.05;69.57
66945;BME280;53853;51.982;5.928;2023-05-27T04:49:25;102814.53;;;10.08;69.18
66945;BME280;53853;51.982;5.928;2023-05-27T04:51:56;102818.84;;;10.10;69.24
66945;BME280;53853;51.982;5.928;2023-05-27T04:54:27;102809.56;;;10.16;69.00
66945;BME280;53853;51.982;5.928;2023-05-27T04:57:02;102805.78;;;10.20;69.08
66945;BME280;53853;51.982;5.928;2023-05-27T04:59:33;102807.38;;;10.23;68.96
66945;BME280;53853;51.982;5.928;2023-05-27T05:02:13;102808.88;;;10.27;69.06
66945;BME280;53853;51.982;5.928;2023-05-27T05:04:59;102809.44;;;10.32;69.10
66945;BME280;53853;51.982;5.928;2023-05-27T05:07:29;102810.03;;;10.37;69.08
66945;BME280;53853;51.982;5.928;2023-05-27T05:10:00;102812.09;;;10.46;69.19
66945;BME280;53853;51.982;5.928;2023-05-27T05:12:38;102814.09;;;10.70;69.60
66945;BME280;53853;51.982;5.928;2023-05-27T05:15:08;102811.50;;;10.96;69.45
66945;BME280;53853;51.982;5.928;2023-05-27T05:17:38;102810.69;;;11.21;69.28
66945;BME280;53853;51.982;5.928;2023-05-27T05:20:09;102808.03;;;11.47;68.81
66945;BME280;53853;51.982;5.928;2023-05-27T05:22:40;102803.22;;;11.65;68.00
66945;BME280;53853;51.982;5.928;2023-05-27T05:25:11;102807.00;;;11.86;67.62
66945;BME280;53853;51.982;5.928;2023-05-27T05:27:50;102811.19;;;12.03;66.67
66945;BME280;53853;51.982;5.928;2023-05-27T05:30:21;102801.75;;;12.10;65.82
66945;BME280;53853;51.982;5.928;2023-05-27T05:32:53;102801.22;;;12.18;65.47
66945;BME280;53853;51.982;5.928;2023-05-27T05:35:25;102795.16;;;12.27;65.28
66945;BME280;53853;51.982;5.928;2023-05-27T05:38:04;102797.28;;;12.35;64.58
66945;BME280;53853;51.982;5.928;2023-05-27T05:40:34;102790.13;;;12.36;64.51
66945;BME280;53853;51.982;5.928;2023-05-27T05:43:17;102790.34;;;12.32;64.98
66945;BME280;53853;51.982;5.928;2023-05-27T05:45:48;102790.75;;;12.39;65.21
66945;BME280;53853;51.982;5.928;2023-05-27T05:48:20;102793.47;;;12.50;65.04
66945;BME280;53853;51.982;5.928;2023-05-27T05:50:50;102797.91;;;12.63;64.76
66945;BME280;53853;51.982;5.928;2023-05-27T05:53:19;102796.75;;;12.54;64.43
66945;BME280;53853;51.982;5.928;2023-05-27T05:55:50;102793.75;;;12.59;64.44
66945;BME280;53853;51.982;5.928;2023-05-27T05:58:23;102798.25;;;12.58;64.41
66945;BME280;53853;51.982;5.928;2023-05-27T06:00:53;102795.34;;;12.61;64.18
66945;BME280;53853;51.982;5.928;2023-05-27T06:03:50;102800.19;;;12.56;64.15
66945;BME280;53853;51.982;5.928;2023-05-27T06:06:31;102792.28;;;12.55;64.35
66945;BME280;53853;51.982;5.928;2023-05-27T06:09:21;102786.19;;;12.53;64.35
66945;BME280;53853;51.982;5.928;2023-05-27T06:11:54;102791.19;;;12.57;64.50
66945;BME280;53853;51.982;5.928;2023-05-27T06:14:28;102780.47;;;12.57;64.71
66945;BME280;53853;51.982;5.928;2023-05-27T06:16:59;102792.06;;;12.58;64.64
66945;BME280;53853;51.982;5.928;2023-05-27T06:19:30;102784.16;;;12.56;64.60
66945;BME280;53853;51.982;5.928;2023-05-27T06:22:00;102777.31;;;12.52;64.84
66945;BME280;53853;51.982;5.928;2023-05-27T06:24:31;102783.38;;;12.54;64.74
66945;BME280;53853;51.982;5.928;2023-05-27T06:27:13;102782.66;;;12.52;64.88
66945;BME280;53853;51.982;5.928;2023-05-27T06:29:46;102783.91;;;12.59;64.91
66945;BME280;53853;51.982;5.928;2023-05-27T06:32:23;102777.56;;;12.60;64.90
66945;BME280;53853;51.982;5.928;2023-05-27T06:34:52;102770.66;;;12.58;64.61
66945;BME280;53853;51.982;5.928;2023-05-27T06:37:22;102774.06;;;12.60;64.72
66945;BME280;53853;51.982;5.928;2023-05-27T06:39:52;102772.00;;;12.63;64.81
66945;BME280;53853;51.982;5.928;2023-05-27T06:42:22;102767.16;;;12.68;65.01
66945;BME280;53853;51.982;5.928;2023-05-27T06:45:13;102773.97;;;12.73;64.75
66945;BME280;53853;51.982;5.928;2023-05-27T06:47:45;102774.97;;;12.83;65.42
66945;BME280;53853;51.982;5.928;2023-05-27T06:50:14;102768.44;;;12.87;64.96
66945;BME280;53853;51.982;5.928;2023-05-27T06:52:44;102774.38;;;12.91;64.56
66945;BME280;53853;51.982;5.928;2023-05-27T06:55:36;102767.00;;;12.94;64.35
66945;BME280;53853;51.982;5.928;2023-05-27T06:58:24;102766.00;;;12.95;64.38
66945;BME280;53853;51.982;5.928;2023-05-27T07:01:00;102765.53;;;13.01;64.49
66945;BME280;53853;51.982;5.928;2023-05-27T07:03:33;102755.56;;;13.03;64.46
66945;BME280;53853;51.982;5.928;2023-05-27T07:06:05;102758.63;;;13.10;64.39
66945;BME280;53853;51.982;5.928;2023-05-27T07:08:44;102759.63;;;13.20;64.49
66945;BME280;53853;51.982;5.928;2023-05-27T07:11:19;102751.94;;;13.27;64.37
66945;BME280;53853;51.982;5.928;2023-05-27T07:13:50;102761.97;;;13.36;64.22
66945;BME280;53853;51.982;5.928;2023-05-27T07:16:26;102761.25;;;13.46;63.76
66945;BME280;53853;51.982;5.928;2023-05-27T07:18:57;102753.09;;;13.47;64.04
66945;BME280;53853;51.982;5.928;2023-05-27T07:21:30;102750.53;;;13.57;63.80
66945;BME280;53853;51.982;5.928;2023-05-27T07:24:02;102752.72;;;13.63;63.74
66945;BME280;53853;51.982;5.928;2023-05-27T07:26:34;102743.09;;;13.72;63.53
66945;BME280;53853;51.982;5.928;2023-05-27T07:29:04;102731.13;;;13.76;62.96
66945;BME280;53853;51.982;5.928;2023-05-27T07:31:55;102727.97;;;13.82;62.96
66945;BME280;53853;51.982;5.928;2023-05-27T07:34:27;102727.22;;;13.91;62.82
66945;BME280;53853;51.982;5.928;2023-05-27T07:36:57;102726.59;;;13.99;61.67
66945;BME280;53853;51.982;5.928;2023-05-27T07:39:27;102724.03;;;13.98;61.87
66945;BME280;53853;51.982;5.928;2023-05-27T07:41:57;102725.59;;;14.00;61.87
66945;BME280;53853;51.982;5.928;2023-05-27T07:44:29;102715.97;;;14.09;62.08
66945;BME280;53853;51.982;5.928;2023-05-27T07:47:02;102724.94;;;14.19;61.42
66945;BME280;53853;51.982;5.928;2023-05-27T07:49:32;102726.38;;;14.23;61.43
66945;BME280;53853;51.982;5.928;2023-05-27T07:52:22;102716.25;;;14.27;61.66
66945;BME280;53853;51.982;5.928;2023-05-27T07:54:53;102721.31;;;14.41;61.72
66945;BME280;53853;51.982;5.928;2023-05-27T07:57:25;102709.69;;;14.52;61.25
66945;BME280;53853;51.982;5.928;2023-05-27T07:59:56;102706.13;;;14.63;61.39
66945;BME280;53853;51.982;5.928;2023-05-27T08:02:40;102706.84;;;14.65;60.26
66945;BME280;53853;51.982;5.928;2023-05-27T08:05:10;102703.06;;;14.67;60.39
66945;BME280;53853;51.982;5.928;2023-05-27T08:08:03;102700.69;;;14.74;60.50
66945;BME280;53853;51.982;5.928;2023-05-27T08:11:02;102691.59;;;14.87;61.01
66945;BME280;53853;51.982;5.928;2023-05-27T08:13:50;102700.25;;;15.00;61.11
66945;BME280;53853;51.982;5.928;2023-05-27T08:16:46;102690.69;;;15.07;60.18
66945;BME280;53853;51.982;5.928;2023-05-27T08:19:26;102695.66;;;15.12;59.73
66945;BME280;53853;51.982;5.928;2023-05-27T08:22:15;102683.66;;;15.16;59.56
66945;BME280;53853;51.982;5.928;2023-05-27T08:24:45;102677.44;;;15.15;59.33
66945;BME280;53853;51.982;5.928;2023-05-27T08:27:49;102673.81;;;15.26;59.56
66945;BME280;53853;51.982;5.928;2023-05-27T08:30:27;102684.47;;;15.37;59.95
66945;BME280;53853;51.982;5.928;2023-05-27T08:33:13;102662.28;;;15.45;59.20
66945;BME280;53853;51.982;5.928;2023-05-27T08:35:46;102661.47;;;15.54;59.32
66945;BME280;53853;51.982;5.928;2023-05-27T08:38:16;102660.91;;;15.61;59.26
66945;BME280;53853;51.982;5.928;2023-05-27T08:40:46;102660.94;;;15.70;59.58
66945;BME280;53853;51.982;5.928;2023-05-27T08:43:17;102661.25;;;15.77;57.54
66945;BME280;53853;51.982;5.928;2023-05-27T08:45:48;102658.97;;;15.82;58.02
66945;BME280;53853;51.982;5.928;2023-05-27T08:48:19;102655.47;;;15.91;58.53
66945;BME280;53853;51.982;5.928;2023-05-27T08:50:52;102661.97;;;15.99;58.07
66945;BME280;53853;51.982;5.928;2023-05-27T08:53:23;102649.50;;;16.07;58.42
66945;BME280;53853;51.982;5.928;2023-05-27T08:55:54;102643.72;;;16.12;57.72
66945;BME280;53853;51.982;5.928;2023-05-27T08:58:27;102644.00;;;16.19;57.45
66945;BME280;53853;51.982;5.928;2023-05-27T09:00:58;102635.34;;;16.25;57.28
66945;BME280;53853;51.982;5.928;2023-05-27T09:03:28;102638.31;;;16.32;56.98
66945;BME280;53853;51.982;5.928;2023-05-27T09:06:01;102632.34;;;16.38;56.94
66945;BME280;53853;51.982;5.928;2023-05-27T09:08:31;102618.31;;;16.44;57.15
66945;BME280;53853;51.982;5.928;2023-05-27T09:11:01;102617.47;;;16.53;56.65
66945;BME280;53853;51.982;5.928;2023-05-27T09:13:34;102622.56;;;16.56;56.59
66945;BME280;53853;51.982;5.928;2023-05-27T09:16:05;102614.19;;;16.59;55.91
66945;BME280;53853;51.982;5.928;2023-05-27T09:18:36;102611.59;;;16.67;57.79
66945;BME280;53853;51.982;5.928;2023-05-27T09:21:08;102617.25;;;16.74;56.91
66945;BME280;53853;51.982;5.928;2023-05-27T09:23:38;102620.47;;;16.78;56.29
66945;BME280;53853;51.982;5.928;2023-05-27T09:26:09;102602.22;;;16.81;55.61
66945;BME280;53853;51.982;5.928;2023-05-27T09:28:39;102608.72;;;16.89;55.98
66945;BME280;53853;51.982;5.928;2023-05-27T09:31:10;102614.34;;;16.95;55.71
66945;BME280;53853;51.982;5.928;2023-05-27T09:33:40;102604.41;;;17.06;55.73
66945;BME280;53853;51.982;5.928;2023-05-27T09:36:12;102602.84;;;17.03;54.84
66945;BME280;53853;51.982;5.928;2023-05-27T09:38:42;102609.09;;;17.04;55.01
66945;BME280;53853;51.982;5.928;2023-05-27T09:41:15;102609.63;;;17.07;54.20
66945;BME280;53853;51.982;5.928;2023-05-27T09:43:57;102606.19;;;17.15;54.44
66945;BME280;53853;51.982;5.928;2023-05-27T09:46:29;102606.81;;;17.27;54.92
66945;BME280;53853;51.982;5.928;2023-05-27T09:49:00;102600.38;;;17.37;54.62
66945;BME280;53853;51.982;5.928;2023-05-27T09:51:33;102593.25;;;17.46;53.65
66945;BME280;53853;51.982;5.928;2023-05-27T09:54:04;102592.47;;;17.54;53.94
66945;BME280;53853;51.982;5.928;2023-05-27T09:56:35;102593.56;;;17.61;53.22
66945;BME280;53853;51.982;5.928;2023-05-27T09:59:05;102595.09;;;17.64;53.22
66945;BME280;53853;51.982;5.928;2023-05-27T10:01:37;102595.63;;;17.67;52.81
66945;BME280;53853;51.982;5.928;2023-05-27T10:04:07;102595.50;;;17.69;51.97
66945;BME280;53853;51.982;5.928;2023-05-27T10:06:40;102578.13;;;17.71;51.34
66945;BME280;53853;51.982;5.928;2023-05-27T10:09:10;102577.53;;;17.78;52.07
66945;BME280;53853;51.982;5.928;2023-05-27T10:11:44;102571.06;;;17.88;52.37
66945;BME280;53853;51.982;5.928;2023-05-27T10:14:14;102566.06;;;17.93;52.86
66945;BME280;53853;51.982;5.928;2023-05-27T10:16:52;102566.00;;;18.03;51.56
66945;BME280;53853;51.982;5.928;2023-05-27T10:19:23;102559.09;;;18.09;51.78
66945;BME280;53853;51.982;5.928;2023-05-27T10:21:55;102552.25;;;18.15;50.69
66945;BME280;53853;51.982;5.928;2023-05-27T10:24:32;102551.44;;;18.22;50.09
66945;BME280;53853;51.982;5.928;2023-05-27T10:27:03;102553.28;;;18.22;50.33
66945;BME280;53853;51.982;5.928;2023-05-27T10:29:37;102546.25;;;18.29;50.60
66945;BME280;53853;51.982;5.928;2023-05-27T10:32:07;102548.09;;;18.28;49.05
66945;BME280;53853;51.982;5.928;2023-05-27T10:34:38;102550.94;;;18.27;49.12
66945;BME280;53853;51.982;5.928;2023-05-27T10:37:19;102551.03;;;18.35;49.45
66945;BME280;53853;51.982;5.928;2023-05-27T10:39:56;102555.06;;;18.39;49.48
66945;BME280;53853;51.982;5.928;2023-05-27T10:42:26;102542.81;;;18.45;49.60
66945;BME280;53853;51.982;5.928;2023-05-27T10:45:05;102539.47;;;18.51;48.54
66945;BME280;53853;51.982;5.928;2023-05-27T10:47:36;102535.75;;;18.52;47.81
66945;BME280;53853;51.982;5.928;2023-05-27T10:50:13;102536.28;;;18.56;48.00
66945;BME280;53853;51.982;5.928;2023-05-27T10:52:48;102533.78;;;18.62;47.96
66945;BME280;53853;51.982;5.928;2023-05-27T10:55:20;102534.81;;;18.70;48.44
66945;BME280;53853;51.982;5.928;2023-05-27T10:57:51;102526.94;;;18.76;48.32
66945;BME280;53853;51.982;5.928;2023-05-27T11:00:21;102530.66;;;18.83;47.69
66945;BME280;53853;51.982;5.928;2023-05-27T11:02:55;102516.00;;;18.86;47.06
66945;BME280;53853;51.982;5.928;2023-05-27T11:05:28;102518.72;;;18.86;46.87
66945;BME280;53853;51.982;5.928;2023-05-27T11:08:02;102505.56;;;18.91;45.62
66945;BME280;53853;51.982;5.928;2023-05-27T11:10:36;102508.09;;;18.93;46.06
66945;BME280;53853;51.982;5.928;2023-05-27T11:13:05;102496.44;;;18.92;45.44
66945;BME280;53853;51.982;5.928;2023-05-27T11:15:35;102511.13;;;18.98;45.26
66945;BME280;53853;51.982;5.928;2023-05-27T11:18:09;102499.69;;;19.04;45.85
66945;BME280;53853;51.982;5.928;2023-05-27T11:20:39;102499.69;;;19.12;46.51
66945;BME280;53853;51.982;5.928;2023-05-27T11:23:11;102494.81;;;19.16;45.50
66945;BME280;53853;51.982;5.928;2023-05-27T11:25:42;102491.25;;;19.15;45.34
66945;BME280;53853;51.982;5.928;2023-05-27T11:28:16;102490.75;;;19.20;46.30
66945;BME280;53853;51.982;5.928;2023-05-27T11:30:46;102488.22;;;19.27;45.00
66945;BME280;53853;51.982;5.928;2023-05-27T11:33:16;102481.47;;;19.31;44.87
66945;BME280;53853;51.982;5.928;2023-05-27T11:35:46;102477.78;;;19.40;45.56
66945;BME280;53853;51.982;5.928;2023-05-27T11:38:21;102474.22;;;19.48;45.50
66945;BME280;53853;51.982;5.928;2023-05-27T11:40:51;102466.63;;;19.51;45.96
66945;BME280;53853;51.982;5.928;2023-05-27T11:43:21;102464.75;;;19.60;46.33
66945;BME280;53853;51.982;5.928;2023-05-27T11:45:50;102459.34;;;19.68;45.10
66945;BME280;53853;51.982;5.928;2023-05-27T11:48:21;102450.38;;;19.68;45.07
66945;BME280;53853;51.982;5.928;2023-05-27T11:50:50;102453.44;;;19.73;44.16
66945;BME280;53853;51.982;5.928;2023-05-27T11:53:27;102452.75;;;19.79;42.34
66945;BME280;53853;51.982;5.928;2023-05-27T11:55:58;102435.16;;;19.83;43.41
66945;BME280;53853;51.982;5.928;2023-05-27T11:58:28;102438.53;;;19.85;43.06
66945;BME280;53853;51.982;5.928;2023-05-27T12:00:58;102432.81;;;19.80;42.63
66945;BME280;53853;51.982;5.928;2023-05-27T12:03:27;102429.75;;;19.83;42.81
66945;BME280;53853;51.982;5.928;2023-05-27T12:05:58;102436.84;;;19.93;43.14
66945;BME280;53853;51.982;5.928;2023-05-27T12:08:30;102427.00;;;20.00;42.30
66945;BME280;53853;51.982;5.928;2023-05-27T12:11:01;102418.53;;;20.03;42.31
66945;BME280;53853;51.982;5.928;2023-05-27T12:13:30;102419.41;;;20.03;41.89
66945;BME280;53853;51.982;5.928;2023-05-27T12:16:00;102413.63;;;20.06;41.49
66945;BME280;53853;51.982;5.928;2023-05-27T12:18:30;102399.59;;;20.11;39.89
66945;BME280;53853;51.982;5.928;2023-05-27T12:21:00;102398.38;;;20.14;40.91
66945;BME280;53853;51.982;5.928;2023-05-27T12:23:32;102399.22;;;20.14;40.64
66945;BME280;53853;51.982;5.928;2023-05-27T12:26:02;102395.31;;;20.17;40.55
66945;BME280;53853;51.982;5.928;2023-05-27T12:28:32;102389.38;;;20.21;40.84
66945;BME280;53853;51.982;5.928;2023-05-27T12:31:02;102396.97;;;20.26;40.99
66945;BME280;53853;51.982;5.928;2023-05-27T12:33:32;102392.69;;;20.32;41.60
66945;BME280;53853;51.982;5.928;2023-05-27T12:36:03;102392.69;;;20.40;40.96
66945;BME280;53853;51.982;5.928;2023-05-27T12:38:36;102383.84;;;20.46;40.58
66945;BME280;53853;51.982;5.928;2023-05-27T12:41:06;102375.38;;;20.49;39.56
66945;BME280;53853;51.982;5.928;2023-05-27T12:43:36;102379.22;;;20.55;39.97
66945;BME280;53853;51.982;5.928;2023-05-27T12:46:06;102374.78;;;20.62;40.69
66945;BME280;53853;51.982;5.928;2023-05-27T12:48:35;102368.69;;;20.68;39.83
66945;BME280;53853;51.982;5.928;2023-05-27T12:51:05;102374.47;;;20.65;39.87
66945;BME280;53853;51.982;5.928;2023-05-27T12:53:38;102364.78;;;20.62;40.06
66945;BME280;53853;51.982;5.928;2023-05-27T12:56:08;102365.75;;;20.70;40.86
66945;BME280;53853;51.982;5.928;2023-05-27T12:58:40;102366.75;;;20.77;40.71
66945;BME280;53853;51.982;5.928;2023-05-27T13:01:10;102359.59;;;20.84;41.02
66945;BME280;53853;51.982;5.928;2023-05-27T13:03:40;102358.66;;;20.92;41.05
66945;BME280;53853;51.982;5.928;2023-05-27T13:06:09;102357.94;;;20.98;40.66
66945;BME280;53853;51.982;5.928;2023-05-27T13:08:42;102349.63;;;20.99;40.72
66945;BME280;53853;51.982;5.928;2023-05-27T13:11:12;102346.75;;;21.01;40.20
66945;BME280;53853;51.982;5.928;2023-05-27T13:13:42;102339.94;;;21.05;39.94
66945;BME280;53853;51.982;5.928;2023-05-27T13:16:12;102339.09;;;21.05;40.51
66945;BME280;53853;51.982;5.928;2023-05-27T13:18:42;102335.44;;;21.12;41.14
66945;BME280;53853;51.982;5.928;2023-05-27T13:21:12;102344.56;;;21.20;39.77